createdAt,value
2023-04-22T00:00:48.091Z,147.07
2023-04-22T00:03:16.180Z,147.50
2023-04-22T00:05:45.499Z,148.13
2023-04-22T00:08:13.312Z,147.30
2023-04-22T00:10:41.141Z,147.30
2023-04-22T00:13:08.937Z,147.03
2023-04-22T00:15:36.725Z,146.63
2023-04-22T00:18:04.715Z,147.80
2023-04-22T00:20:32.849Z,147.40
2023-04-22T00:23:01.977Z,147.10
2023-04-22T00:25:29.752Z,147.30
2023-04-22T00:27:57.541Z,147.13
2023-04-22T00:30:25.480Z,147.77
2023-04-22T00:32:54.006Z,147.53
2023-04-22T00:35:21.825Z,147.00
2023-04-22T00:37:49.795Z,147.07
2023-04-22T00:40:18.991Z,147.00
2023-04-22T00:42:50.250Z,147.63
2023-04-22T00:45:18.773Z,147.23
2023-04-22T00:47:46.699Z,146.60
2023-04-22T00:50:15.059Z,146.90
2023-04-22T00:52:42.964Z,146.77
2023-04-22T00:55:11.909Z,146.77
2023-04-22T00:57:41.893Z,147.07
2023-04-22T01:00:10.825Z,146.60
2023-04-22T01:02:39.144Z,146.37
2023-04-22T01:05:09.450Z,145.93
2023-04-22T01:07:37.420Z,145.70
2023-04-22T01:10:06.218Z,145.90
2023-04-22T01:12:34.155Z,145.97
2023-04-22T01:15:04.872Z,146.27
2023-04-22T01:17:33.666Z,146.43
2023-04-22T01:20:03.890Z,145.60
2023-04-22T01:22:36.699Z,146.07
2023-04-22T01:25:06.761Z,146.23
2023-04-22T01:27:36.059Z,146.17
2023-04-22T01:30:04.370Z,145.67
2023-04-22T01:32:32.764Z,145.90
2023-04-22T01:35:00.899Z,145.70
2023-04-22T01:37:29.934Z,145.63
2023-04-22T01:39:59.480Z,145.77
2023-04-22T01:42:29.094Z,145.60
2023-04-22T01:44:59.637Z,146.03
2023-04-22T01:47:28.012Z,145.27
2023-04-22T01:49:55.865Z,145.57
2023-04-22T01:52:23.900Z,145.43
2023-04-22T01:54:52.454Z,145.13
2023-04-22T01:57:20.294Z,145.07
2023-04-22T01:59:49.461Z,145.70
2023-04-22T02:02:17.392Z,145.37
2023-04-22T02:04:45.276Z,145.00
2023-04-22T02:07:13.159Z,145.37
2023-04-22T02:09:41.285Z,145.30
2023-04-22T02:12:09.270Z,144.90
2023-04-22T02:14:37.098Z,145.60
2023-04-22T02:17:31.297Z,146.10
2023-04-22T02:19:59.353Z,145.20
2023-04-22T02:22:29.193Z,145.33
2023-04-22T02:24:57.029Z,145.43
2023-04-22T02:27:24.968Z,145.33
2023-04-22T02:29:53.273Z,145.13
2023-04-22T02:32:21.117Z,145.37
2023-04-22T02:34:50.650Z,145.47
2023-04-22T02:37:19.037Z,145.50
2023-04-22T02:39:46.837Z,145.10
2023-04-22T02:42:14.598Z,145.50
2023-04-22T02:44:42.381Z,145.30
2023-04-22T02:47:10.584Z,145.10
2023-04-22T02:49:38.622Z,145.43
2023-04-22T02:52:08.123Z,146.00
2023-04-22T02:54:35.986Z,144.73
2023-04-22T02:57:03.934Z,145.90
2023-04-22T02:59:32.279Z,145.83
2023-04-22T03:02:00.601Z,146.00
2023-04-22T03:04:42.325Z,145.33
2023-04-22T03:07:11.788Z,145.73
2023-04-22T03:09:39.741Z,145.50
2023-04-22T03:12:07.875Z,144.97
2023-04-22T03:14:37.213Z,145.27
2023-04-22T03:17:05.310Z,145.33
2023-04-22T03:19:33.188Z,145.57
2023-04-22T03:22:01.027Z,144.97
2023-04-22T03:24:30.154Z,145.30
2023-04-22T03:26:58.281Z,145.43
2023-04-22T03:29:26.222Z,145.50
2023-04-22T03:31:54.351Z,145.53
2023-04-22T03:34:22.191Z,145.90
2023-04-22T03:36:50.698Z,145.37
2023-04-22T03:39:19.092Z,145.40
2023-04-22T03:41:48.760Z,145.40
2023-04-22T03:44:17.194Z,145.00
2023-04-22T03:46:46.266Z,145.03
2023-04-22T03:49:27.632Z,145.07
2023-04-22T03:51:56.768Z,144.97
2023-04-22T03:54:26.253Z,145.00
2023-04-22T03:56:55.454Z,145.03
2023-04-22T03:59:24.442Z,145.23
2023-04-22T04:01:53.477Z,145.03
2023-04-22T04:04:24.665Z,145.30
2023-04-22T04:06:57.763Z,144.93
2023-04-22T04:09:25.977Z,145.17
2023-04-22T04:11:56.601Z,145.17
2023-04-22T04:14:24.736Z,145.50
2023-04-22T04:16:53.298Z,145.23
2023-04-22T04:19:33.371Z,145.43
2023-04-22T04:22:02.078Z,145.13
2023-04-22T04:24:36.504Z,145.47
2023-04-22T04:27:12.447Z,145.37
2023-04-22T04:29:47.798Z,145.57
2023-04-22T04:32:22.212Z,144.93
2023-04-22T04:34:50.685Z,145.37
2023-04-22T04:37:18.951Z,145.23
2023-04-22T04:39:59.217Z,145.30
2023-04-22T04:42:34.740Z,144.83
2023-04-22T04:45:08.005Z,145.07
2023-04-22T04:47:37.196Z,144.70
2023-04-22T04:50:15.556Z,144.80
2023-04-22T04:52:44.710Z,145.60
2023-04-22T04:55:12.521Z,145.63
2023-04-22T04:57:42.137Z,144.97
2023-04-22T05:00:13.859Z,145.47
2023-04-22T05:02:42.807Z,145.10
2023-04-22T05:05:12.112Z,145.13
2023-04-22T05:07:42.780Z,145.27
2023-04-22T05:10:12.249Z,145.33
2023-04-22T05:12:41.744Z,144.97
2023-04-22T05:15:14.115Z,144.97
2023-04-22T05:17:42.580Z,145.80
2023-04-22T05:20:11.112Z,145.60
2023-04-22T05:22:41.604Z,145.50
2023-04-22T05:25:11.087Z,145.50
2023-04-22T05:27:45.829Z,145.83
2023-04-22T05:30:15.383Z,145.57
2023-04-22T05:32:43.291Z,145.40
2023-04-22T05:35:12.062Z,145.70
2023-04-22T05:37:40.491Z,145.37
2023-04-22T05:40:09.535Z,145.23
2023-04-22T05:42:37.346Z,145.73
2023-04-22T05:45:07.782Z,145.40
2023-04-22T05:47:38.058Z,145.30
2023-04-22T05:50:07.621Z,144.97
2023-04-22T05:52:42.347Z,145.30
2023-04-22T05:55:15.770Z,145.70
2023-04-22T05:57:45.006Z,145.67
2023-04-22T06:00:26.902Z,144.97
2023-04-22T06:03:10.584Z,145.40
2023-04-22T06:05:38.548Z,145.70
2023-04-22T06:08:06.560Z,145.33
2023-04-22T06:10:36.473Z,145.30
2023-04-22T06:13:04.345Z,145.73
2023-04-22T06:15:35.973Z,145.40
2023-04-22T06:18:03.865Z,145.07
2023-04-22T06:20:32.569Z,145.90
2023-04-22T06:23:00.366Z,146.23
2023-04-22T06:25:28.204Z,145.73
2023-04-22T06:27:56.123Z,146.30
2023-04-22T06:30:24.214Z,145.07
2023-04-22T06:32:55.321Z,145.77
2023-04-22T06:35:23.374Z,145.70
2023-04-22T06:37:52.294Z,145.80
2023-04-22T06:40:20.968Z,146.07
2023-04-22T06:43:11.508Z,145.77
2023-04-22T06:45:58.078Z,145.63
2023-04-22T06:48:43.026Z,146.13
2023-04-22T06:51:35.229Z,145.43
2023-04-22T06:54:03.410Z,145.80
2023-04-22T06:56:31.512Z,145.83
2023-04-22T06:58:59.334Z,146.13
2023-04-22T07:01:27.196Z,146.17
2023-04-22T07:03:56.659Z,147.00
2023-04-22T07:06:25.132Z,146.60
2023-04-22T07:08:53.081Z,146.97
2023-04-22T07:11:21.276Z,147.27
2023-04-22T07:14:04.526Z,147.77
2023-04-22T07:16:32.390Z,147.10
2023-04-22T07:19:01.617Z,147.33
2023-04-22T07:21:29.360Z,147.40
2023-04-22T07:23:57.136Z,147.93
2023-04-22T07:26:24.995Z,148.93
2023-04-22T07:28:52.962Z,148.27
2023-04-22T07:31:20.762Z,148.53
2023-04-22T07:33:48.637Z,149.33
2023-04-22T07:36:17.784Z,149.13
2023-04-22T07:38:45.600Z,149.80
2023-04-22T07:41:13.574Z,150.00
2023-04-22T07:43:41.369Z,150.50
2023-04-22T07:46:09.209Z,151.20
2023-04-22T07:48:37.444Z,151.63
2023-04-22T07:51:05.668Z,152.07
2023-04-22T07:53:34.852Z,152.77
2023-04-22T07:56:03.000Z,153.40
2023-04-22T07:58:30.792Z,153.50
2023-04-22T08:00:58.582Z,153.77
2023-04-22T08:03:26.949Z,153.60
2023-04-22T08:05:56.625Z,153.73
2023-04-22T08:08:24.425Z,153.87
2023-04-22T08:10:53.526Z,154.20
2023-04-22T08:13:21.319Z,153.60
2023-04-22T08:15:49.135Z,154.93
2023-04-22T08:18:16.964Z,156.37
2023-04-22T08:20:44.747Z,158.67
2023-04-22T08:23:12.544Z,158.87
2023-04-22T08:25:40.429Z,159.53
2023-04-22T08:28:09.607Z,159.10
2023-04-22T08:30:37.381Z,159.20
2023-04-22T08:33:05.339Z,158.70
2023-04-22T08:35:35.001Z,159.07
2023-04-22T08:38:03.032Z,159.67
2023-04-22T08:40:30.969Z,159.27
2023-04-22T08:42:58.860Z,159.07
2023-04-22T08:45:28.230Z,159.37
2023-04-22T08:47:56.859Z,159.73
2023-04-22T08:50:25.274Z,158.97
2023-04-22T08:52:53.140Z,159.50
2023-04-22T08:55:21.235Z,159.23
2023-04-22T09:02:20.638Z,159.27
2023-04-22T09:04:50.770Z,160.00
2023-04-22T09:07:23.737Z,159.10
2023-04-22T09:09:52.079Z,159.07
2023-04-22T09:12:19.939Z,159.47
2023-04-22T09:14:47.742Z,159.07
2023-04-22T09:17:18.552Z,159.50
2023-04-22T09:19:46.730Z,159.47
2023-04-22T09:22:16.181Z,159.30
2023-04-22T09:24:45.905Z,159.27
2023-04-22T09:27:13.730Z,158.77
2023-04-22T09:29:49.611Z,159.07
2023-04-22T09:32:18.844Z,159.00
2023-04-22T09:34:50.227Z,160.30
2023-04-22T09:37:21.388Z,160.23
2023-04-22T09:39:49.908Z,160.17
2023-04-22T09:42:17.836Z,160.10
2023-04-22T09:44:47.722Z,160.53
2023-04-22T09:47:15.556Z,160.37
2023-04-22T09:49:49.314Z,160.60
2023-04-22T09:52:26.700Z,159.63
2023-04-22T09:54:55.232Z,160.03
2023-04-22T09:57:23.256Z,160.23
2023-04-22T09:59:52.876Z,159.63
2023-04-22T10:02:29.232Z,160.27
2023-04-22T10:04:59.254Z,159.67
2023-04-22T10:07:31.467Z,159.47
2023-04-22T10:09:59.901Z,159.77
2023-04-22T10:12:35.228Z,160.17
2023-04-22T10:15:04.233Z,160.10
2023-04-22T10:17:35.063Z,160.57
2023-04-22T10:20:08.176Z,160.70
2023-04-22T10:22:36.662Z,159.40
2023-04-22T10:25:04.886Z,160.13
2023-04-22T10:27:33.667Z,160.57
2023-04-22T10:30:02.133Z,160.00
2023-04-22T10:32:30.813Z,160.20
2023-04-22T10:35:12.276Z,160.23
2023-04-22T10:37:43.400Z,159.80
2023-04-22T10:40:16.071Z,160.93
2023-04-22T10:42:49.171Z,160.50
2023-04-22T10:45:17.447Z,159.20
2023-04-22T10:47:45.533Z,159.87
2023-04-22T10:50:21.075Z,159.37
2023-04-22T10:52:51.448Z,160.60
2023-04-22T10:55:19.955Z,159.73
2023-04-22T10:57:49.852Z,159.93
2023-04-22T11:00:53.560Z,160.57
2023-04-22T11:03:28.460Z,160.57
2023-04-22T11:06:17.116Z,160.67
2023-04-22T11:08:49.208Z,160.33
2023-04-22T11:11:18.863Z,159.07
2023-04-22T11:13:50.486Z,159.80
2023-04-22T11:16:22.473Z,159.17
2023-04-22T11:18:50.820Z,159.73
2023-04-22T11:21:21.437Z,159.40
2023-04-22T11:23:52.585Z,160.27
2023-04-22T11:26:33.551Z,159.30
2023-04-22T11:29:01.434Z,160.30
2023-04-22T11:31:29.275Z,160.13
2023-04-22T11:33:59.962Z,159.90
2023-04-22T11:36:29.178Z,159.37
2023-04-22T11:38:57.509Z,160.57
2023-04-22T11:41:25.285Z,160.27
2023-04-22T11:43:54.651Z,160.60
2023-04-22T11:46:29.958Z,160.33
2023-04-22T11:49:12.858Z,160.43
2023-04-22T11:51:54.598Z,160.60
2023-04-22T11:54:32.401Z,160.13
2023-04-22T11:57:03.151Z,160.77
2023-04-22T11:59:43.231Z,161.00
2023-04-22T12:06:06.012Z,160.03
2023-04-22T12:08:50.012Z,159.90
2023-04-22T12:11:38.973Z,160.33
2023-04-22T12:14:07.678Z,160.50
2023-04-22T12:16:41.658Z,160.17
2023-04-22T12:19:09.980Z,159.73
2023-04-22T12:21:37.744Z,160.47
2023-04-22T12:24:10.420Z,160.03
2023-04-22T12:26:38.637Z,159.97
2023-04-22T12:29:06.466Z,160.20
2023-04-22T12:31:34.567Z,160.63
2023-04-22T12:34:02.628Z,161.00
2023-04-22T12:36:32.307Z,161.07
2023-04-22T12:39:00.164Z,160.97
2023-04-22T12:41:29.256Z,160.03
2023-04-22T12:43:57.037Z,160.47
2023-04-22T12:46:24.862Z,160.87
2023-04-22T12:48:52.625Z,160.70
2023-04-22T12:51:20.446Z,160.93
2023-04-22T12:53:48.301Z,161.17
2023-04-22T12:56:16.340Z,160.97
2023-04-22T12:58:45.541Z,160.20
2023-04-22T13:01:13.377Z,160.47
2023-04-22T13:03:41.386Z,160.77
2023-04-22T13:06:09.272Z,160.57
2023-04-22T13:08:37.069Z,161.07
2023-04-22T13:11:04.886Z,160.30
2023-04-22T13:13:32.690Z,161.50
2023-04-22T13:16:02.476Z,160.53
2023-04-22T13:18:30.618Z,160.70
2023-04-22T13:20:58.413Z,161.00
2023-04-22T13:23:26.930Z,160.37
2023-04-22T13:25:55.099Z,161.33
2023-04-22T13:28:22.930Z,160.57
2023-04-22T13:30:50.739Z,161.47
2023-04-22T13:33:19.886Z,160.23
2023-04-22T13:35:47.715Z,160.63
2023-04-22T13:38:15.496Z,160.57
2023-04-22T13:40:43.297Z,160.77
2023-04-22T13:43:11.158Z,161.07
2023-04-22T13:45:40.108Z,161.00
2023-04-22T13:48:07.924Z,161.03
2023-04-22T13:50:37.041Z,160.37
2023-04-22T13:53:04.935Z,160.40
2023-04-22T13:55:32.803Z,160.60
2023-04-22T13:58:01.077Z,159.97
2023-04-22T14:00:29.136Z,160.83
2023-04-22T14:02:57.024Z,160.47
2023-04-22T14:05:24.960Z,160.07
2023-04-22T14:07:54.346Z,160.37
2023-04-22T14:10:22.269Z,160.40
2023-04-22T14:12:50.654Z,160.40
2023-04-22T14:15:18.573Z,160.73
2023-04-22T14:17:49.152Z,160.80
2023-04-22T14:20:17.062Z,160.30
2023-04-22T14:22:44.816Z,160.30
2023-04-22T14:25:14.199Z,160.53
2023-04-22T14:27:41.981Z,160.53
2023-04-22T14:30:10.499Z,161.07
2023-04-22T14:32:38.367Z,160.30
2023-04-22T14:35:07.035Z,160.73
2023-04-22T14:37:35.643Z,160.80
2023-04-22T14:40:04.184Z,161.33
2023-04-22T14:42:33.348Z,160.40
2023-04-22T14:45:01.428Z,160.67
2023-04-22T14:47:29.799Z,161.30
2023-04-22T14:49:57.626Z,160.53
2023-04-22T14:52:25.593Z,160.53
2023-04-22T14:54:53.554Z,160.60
2023-04-22T14:57:21.335Z,160.43
2023-04-22T14:59:50.447Z,160.17
2023-04-22T15:02:18.407Z,160.77
2023-04-22T15:04:46.418Z,160.97
2023-04-22T15:07:14.246Z,160.07
2023-04-22T15:09:42.216Z,160.77
2023-04-22T15:12:10.809Z,160.67
2023-04-22T15:14:39.123Z,160.67
2023-04-22T15:17:08.305Z,160.03
2023-04-22T15:19:36.488Z,160.23
2023-04-22T15:22:04.300Z,160.60
2023-04-22T15:24:32.141Z,160.30
2023-04-22T15:27:00.524Z,160.57
2023-04-22T15:29:28.469Z,160.67
2023-04-22T15:31:56.617Z,159.80
2023-04-22T15:34:26.079Z,160.60
2023-04-22T15:36:54.200Z,159.80
2023-04-22T15:39:22.062Z,160.43
2023-04-22T15:41:49.977Z,160.37
2023-04-22T15:44:17.857Z,160.40
2023-04-22T15:46:46.776Z,160.60
2023-04-22T15:49:15.530Z,160.10
2023-04-22T15:51:44.822Z,160.23
2023-04-22T15:54:13.281Z,159.47
2023-04-22T15:56:41.326Z,159.73
2023-04-22T15:59:09.172Z,159.73
2023-04-22T16:01:40.321Z,159.73
2023-04-22T16:04:08.713Z,159.43
2023-04-22T16:06:37.994Z,159.77
2023-04-22T16:09:07.160Z,159.73
2023-04-22T16:11:34.963Z,158.83
2023-04-22T16:14:02.791Z,158.97
2023-04-22T16:16:30.876Z,159.67
2023-04-22T16:18:59.612Z,158.83
2023-04-22T16:21:32.613Z,159.40
2023-04-22T16:24:00.819Z,159.53
2023-04-22T16:26:29.974Z,158.83
2023-04-22T16:28:57.808Z,158.87
2023-04-22T16:31:25.772Z,159.00
2023-04-22T16:33:53.614Z,158.70
2023-04-22T16:36:21.445Z,158.90
2023-04-22T16:38:49.242Z,158.20
2023-04-22T16:41:17.040Z,158.80
2023-04-22T16:43:46.570Z,158.53
2023-04-22T16:46:14.396Z,158.47
2023-04-22T16:48:42.270Z,158.07
2023-04-22T16:51:10.209Z,158.87
2023-04-22T16:53:38.329Z,158.10
2023-04-22T16:56:06.538Z,158.03
2023-04-22T16:58:34.311Z,158.10
2023-04-22T17:01:04.066Z,157.93
2023-04-22T17:03:32.415Z,158.10
2023-04-22T17:06:00.263Z,158.27
2023-04-22T17:08:28.063Z,157.60
2023-04-22T17:10:55.842Z,157.87
2023-04-22T17:13:23.664Z,157.40
2023-04-22T17:15:51.785Z,158.43
2023-04-22T17:18:20.926Z,158.27
2023-04-22T17:20:49.016Z,158.50
2023-04-22T17:23:17.297Z,158.20
2023-04-22T17:25:46.847Z,158.50
2023-04-22T17:28:14.638Z,157.37
2023-04-22T17:30:42.454Z,157.83
2023-04-22T17:33:10.574Z,158.13
2023-04-22T17:35:39.802Z,157.37
2023-04-22T17:38:07.610Z,158.03
2023-04-22T17:40:35.482Z,157.60
2023-04-22T17:43:03.269Z,157.97
2023-04-22T17:45:31.046Z,157.90
2023-04-22T17:47:58.877Z,157.90
2023-04-22T17:50:26.737Z,157.30
2023-04-22T17:52:55.932Z,158.47
2023-04-22T17:55:23.705Z,158.60
2023-04-22T17:57:51.458Z,157.33
2023-04-22T18:00:19.418Z,157.33
2023-04-22T18:02:47.577Z,157.40
2023-04-22T18:05:15.575Z,157.73
2023-04-22T18:07:43.332Z,157.33
2023-04-22T18:10:13.380Z,157.57
2023-04-22T18:12:41.679Z,157.67
2023-04-22T18:15:09.835Z,157.80
2023-04-22T18:17:37.759Z,157.83
2023-04-22T18:20:17.479Z,157.47
2023-04-22T18:22:47.217Z,157.73
2023-04-22T18:25:16.796Z,157.00
2023-04-22T18:27:44.756Z,156.50
2023-04-22T18:30:12.870Z,156.97
2023-04-22T18:32:40.716Z,157.43
2023-04-22T18:35:09.488Z,156.40
2023-04-22T18:37:37.285Z,157.60
2023-04-22T18:40:06.300Z,156.93
2023-04-22T18:42:35.612Z,155.97
2023-04-22T18:45:04.769Z,156.93
2023-04-22T18:47:33.474Z,156.83
2023-04-22T18:50:01.349Z,156.60
2023-04-22T18:52:29.176Z,157.33
2023-04-22T18:54:56.982Z,156.80
2023-04-22T18:57:24.800Z,156.77
2023-04-22T18:59:54.916Z,156.70
2023-04-22T19:02:22.905Z,155.93
2023-04-22T19:04:51.014Z,157.10
2023-04-22T19:07:18.876Z,156.50
2023-04-22T19:09:46.682Z,156.83
2023-04-22T19:12:16.464Z,156.60
2023-04-22T19:14:44.308Z,157.27
2023-04-22T19:17:13.465Z,156.37
2023-04-22T19:19:41.432Z,156.37
2023-04-22T19:22:09.615Z,156.57
2023-04-22T19:24:39.389Z,155.97
2023-04-22T19:27:12.253Z,155.97
2023-04-22T19:29:42.913Z,156.00
2023-04-22T19:32:12.748Z,155.70
2023-04-22T19:34:40.657Z,155.83
2023-04-22T19:37:08.546Z,155.77
2023-04-22T19:39:36.534Z,155.23
2023-04-22T19:42:04.489Z,155.83
2023-04-22T19:44:32.296Z,156.30
2023-04-22T19:47:00.236Z,156.13
2023-04-22T19:49:31.186Z,156.00
2023-04-22T19:51:59.577Z,155.53
2023-04-22T19:54:30.206Z,155.43
2023-04-22T19:56:58.864Z,155.67
2023-04-22T19:59:30.932Z,155.83
2023-04-22T20:01:59.341Z,155.73
2023-04-22T20:04:29.377Z,155.63
2023-04-22T20:07:00.321Z,155.23
2023-04-22T20:09:32.640Z,154.87
2023-04-22T20:12:01.147Z,154.40
2023-04-22T20:14:29.412Z,155.17
2023-04-22T20:16:57.495Z,155.17
2023-04-22T20:19:25.504Z,154.97
2023-04-22T20:21:56.608Z,154.90
2023-04-22T20:24:25.530Z,154.93
2023-04-22T20:26:53.570Z,154.47
2023-04-22T20:29:22.839Z,154.97
2023-04-22T20:31:51.102Z,154.90
2023-04-22T20:34:19.161Z,155.20
2023-04-22T20:36:49.333Z,154.93
2023-04-22T20:39:18.809Z,154.77
2023-04-22T20:41:48.810Z,154.27
2023-04-22T20:44:16.564Z,155.07
2023-04-22T20:46:44.343Z,154.80
2023-04-22T20:49:12.091Z,154.60
2023-04-22T20:51:40.464Z,154.87
2023-04-22T20:54:17.810Z,155.27
2023-04-22T20:56:58.814Z,155.00
2023-04-22T20:59:26.596Z,155.10
2023-04-22T21:01:55.026Z,154.20
2023-04-22T21:04:24.043Z,155.40
2023-04-22T21:06:53.232Z,155.13
2023-04-22T21:09:21.600Z,154.57
2023-04-22T21:11:49.920Z,154.10
2023-04-22T21:14:20.954Z,155.07
2023-04-22T21:16:56.037Z,155.13
2023-04-22T21:19:24.434Z,154.27
2023-04-22T21:21:53.659Z,154.40
2023-04-22T21:24:22.630Z,153.93
2023-04-22T21:26:50.761Z,153.90
2023-04-22T21:29:20.589Z,154.77
2023-04-22T21:32:01.123Z,154.53
2023-04-22T21:34:35.470Z,154.30
2023-04-22T21:37:03.436Z,154.03
2023-04-22T21:39:31.254Z,153.90
2023-04-22T21:41:59.180Z,154.07
2023-04-22T21:44:28.274Z,154.60
2023-04-22T21:46:56.038Z,154.30
2023-04-22T21:49:23.858Z,153.90
2023-04-22T21:51:51.712Z,154.53
2023-04-22T21:54:19.484Z,153.90
2023-04-22T21:56:47.301Z,153.53
2023-04-22T21:59:15.329Z,153.83
2023-04-22T22:01:44.489Z,154.40
2023-04-22T22:04:15.462Z,153.60
2023-04-22T22:06:44.380Z,153.40
2023-04-22T22:09:12.351Z,153.60
2023-04-22T22:11:40.151Z,153.20
2023-04-22T22:14:08.227Z,153.97
2023-04-22T22:16:38.169Z,153.40
2023-04-22T22:19:07.357Z,153.63
2023-04-22T22:21:35.181Z,154.03
2023-04-22T22:24:03.044Z,153.43
2023-04-22T22:26:30.984Z,153.20
2023-04-22T22:28:58.752Z,153.23
2023-04-22T22:31:26.610Z,153.13
2023-04-22T22:33:54.414Z,152.90
2023-04-22T22:36:23.667Z,153.60
2023-04-22T22:38:51.468Z,153.73
2023-04-22T22:41:19.246Z,153.50
2023-04-22T22:43:47.007Z,153.17
2023-04-22T22:46:14.872Z,153.60
2023-04-22T22:48:42.724Z,153.10
2023-04-22T22:51:14.200Z,154.13
2023-04-22T22:53:44.605Z,153.10
2023-04-22T22:56:14.456Z,152.87
2023-04-22T22:58:42.229Z,153.20
2023-04-22T23:01:10.228Z,152.63
2023-04-22T23:03:38.267Z,153.93
2023-04-22T23:06:07.322Z,153.70
2023-04-22T23:08:35.168Z,153.30
2023-04-22T23:11:04.347Z,153.90
2023-04-22T23:13:32.109Z,152.77
2023-04-22T23:16:00.546Z,152.93
2023-04-22T23:18:29.682Z,152.67
2023-04-22T23:21:00.056Z,153.10
2023-04-22T23:23:29.937Z,153.27
2023-04-22T23:26:00.519Z,152.70
2023-04-22T23:28:30.394Z,152.57
2023-04-22T23:30:58.574Z,152.40
2023-04-22T23:33:26.979Z,152.60
2023-04-22T23:35:56.487Z,152.00
2023-04-22T23:38:24.420Z,152.10
2023-04-22T23:40:52.200Z,151.63
2023-04-22T23:43:19.972Z,152.93
2023-04-22T23:45:49.228Z,151.70
2023-04-22T23:48:17.095Z,152.47
2023-04-22T23:50:44.872Z,152.73
2023-04-22T23:53:12.665Z,152.80
2023-04-22T23:55:41.071Z,152.50
2023-04-22T23:58:09.143Z,152.63
